KDLH/DLH METAR and TAF weather

Enter ICAO airport designator
Station Type Date Time Source
KDLH METAR 2021/09/16 09:55 UTC NOAA

KDLH 160955Z 21012G28KT 10SM -TSRA FEW050CB SCT060 SCT090 16/11 A2982 RMK AO2 PK WND 19028/0950 RAB51 TSB39 SLP095 FRQ LTGICCC NE-E AND DSNT NW TS NE-E MOV NE P0000 T01610106


Station Type Date Time Source
KDLH Decoded METAR 2021/09/16 09:55 UTC NOAA

Duluth, Duluth International Airport, MN, United States (KDLH) 46-50-34N 092-13-34W 435M
Sep 16, 2021 - 05:55 AM EDT / 2021.09.16 0955 UTC
Wind: from the SSW (210 degrees) at 14 MPH (12 KT) gusting to 32 MPH (28 KT):0
Visibility: 10 mile(s):0
Sky conditions: partly cloudy
Weather: light rain with thunder; Cumulonimbus clouds, lightning observed
Precipitation last hour: A trace
Temperature: 61.0 F (16.1 C)
Dew Point: 51.1 F (10.6 C)
Relative Humidity: 69%
Pressure (altimeter): 29.82 in. Hg (1009 hPa)
ob: KDLH 160955Z 21012G28KT 10SM -TSRA FEW050CB SCT060 SCT090 16/11 A2982 RMK AO2 PK WND 19028/0950 RAB51 TSB39 SLP095 FRQ LTGICCC NE-E AND DSNT NW TS NE-E MOV NE P0000 T01610106
cycle: 10

Station Type Date Time Source
KDLH TAF 2021/09/16 06:39 UTC NOAA

TAF KDLH 160537Z 1606/1706 18012G20KT P6SM OVC070 WS020/20040KT
FM161500 20014G25KT P6SM SCT150
FM170000 20014G23KT 4SM -TSRA BR BKN030CB BKN080
FM170300 23009KT P6SM VCTS BKN015CB

Example: see airport list